Time;durP1;ratioP1;P1;durP2;ratioP2;P2;SDS_P1;SDS_P2;PMS_P1;PMS_P2;Temp;Humidity;BMP_temperature;BMP_pressure;BME280_temperature;BME280_humidity;BME280_pressure;Samples;Min_cycle;Max_cycle;Signal;HPM_P1;HPM_P2
2022/01/13 00:00:32;;;;;;;130.48;21.80;;;4.80;99.90;;;;;;4993614;28;20691;-75
2022/01/13 00:02:57;;;;;;;124.10;20.15;;;4.80;99.90;;;;;;4993700;28;20046;-75
2022/01/13 00:05:28;;;;;;;125.65;20.25;;;4.80;99.90;;;;;;4993125;28;20092;-75
2022/01/13 00:07:55;;;;;;;123.00;22.83;;;4.80;99.90;;;;;;4993372;28;20092;-76
2022/01/13 00:10:22;;;;;;;186.05;24.98;;;4.80;99.90;;;;;;4993569;28;20054;-76
2022/01/13 00:12:56;;;;;;;119.25;19.77;;;4.80;99.90;;;;;;4993606;28;20042;-76
2022/01/13 00:15:25;;;;;;;119.88;20.58;;;4.80;99.90;;;;;;4993197;28;20494;-76
2022/01/13 00:25:12;;;;;;;143.85;21.73;;;4.80;99.90;;;;;;4993254;28;20046;-76
2022/01/13 00:27:42;;;;;;;133.68;21.67;;;4.80;99.90;;;;;;4976772;28;20038;-76
2022/01/13 00:30:14;;;;;;;102.45;17.50;;;4.80;99.90;;;;;;4992918;28;20046;-76
2022/01/13 00:32:40;;;;;;;120.72;20.08;;;4.80;99.90;;;;;;4992848;28;20046;-76
2022/01/13 00:35:06;;;;;;;100.15;17.65;;;4.80;99.90;;;;;;4992618;28;20045;-75
2022/01/13 00:37:32;;;;;;;108.63;17.85;;;4.80;99.90;;;;;;4976092;28;20042;-75
2022/01/13 00:39:58;;;;;;;80.70;15.95;;;4.80;99.90;;;;;;4992648;28;20460;-79
2022/01/13 00:42:25;;;;;;;76.57;17.95;;;4.80;99.90;;;;;;4992482;28;20038;-79
2022/01/13 00:44:51;;;;;;;68.80;14.73;;;4.80;99.90;;;;;;4992408;28;20084;-78
2022/01/13 00:47:16;;;;;;;90.15;15.85;;;4.80;99.90;;;;;;4976018;28;20038;-78
2022/01/13 00:49:42;;;;;;;74.78;15.95;;;4.80;99.90;;;;;;4992258;28;20046;-79
2022/01/13 00:52:07;;;;;;;76.10;16.27;;;4.80;99.90;;;;;;4992226;28;20513;-79
2022/01/13 00:54:34;;;;;;;85.75;16.77;;;4.80;99.90;;;;;;4992257;28;20053;-79
2022/01/13 00:57:00;;;;;;;94.85;16.17;;;4.80;99.90;;;;;;4975828;28;20520;-79
2022/01/13 00:59:26;;;;;;;109.65;19.45;;;4.80;99.90;;;;;;4991897;28;20038;-79
2022/01/13 01:01:54;;;;;;;83.28;16.35;;;4.80;99.90;;;;;;4992048;28;20096;-79
2022/01/13 01:04:20;;;;;;;114.60;20.67;;;4.80;99.90;;;;;;4975890;28;20074;-78
2022/01/13 01:06:46;;;;;;;134.93;20.17;;;4.80;99.90;;;;;;4994585;28;20068;-77
2022/01/13 01:09:18;;;;;;;124.03;20.52;;;4.80;99.90;;;;;;4996411;28;20101;-77
2022/01/13 01:11:47;;;;;;;113.95;20.70;;;4.90;99.90;;;;;;4994388;28;20046;-77
2022/01/13 01:14:14;;;;;;;135.85;21.13;;;4.80;99.90;;;;;;4996003;28;20038;-77
2022/01/13 01:16:40;;;;;;;115.65;19.42;;;4.90;99.90;;;;;;4994047;28;20046;-78
2022/01/13 01:19:08;;;;;;;142.80;22.50;;;4.90;99.90;;;;;;4994322;28;20053;-77
2022/01/13 01:24:28;;;;;;;127.95;20.83;;;4.90;99.90;;;;;;4996254;28;20050;-77
2022/01/13 01:27:04;;;;;;;126.75;19.50;;;4.90;99.90;;;;;;4996575;28;20057;-78
2022/01/13 01:29:38;;;;;;;205.52;25.40;;;4.80;99.90;;;;;;4995885;28;20046;-78
2022/01/13 01:32:09;;;;;;;120.53;20.60;;;4.90;99.90;;;;;;4997957;28;20117;-77
2022/01/13 01:37:19;;;;;;;147.70;22.35;;;4.80;99.90;;;;;;4996741;28;20076;-77
2022/01/13 01:39:48;;;;;;;127.05;20.75;;;4.90;99.90;;;;;;4996682;28;20035;-77
2022/01/13 01:42:15;;;;;;;140.20;21.35;;;4.90;99.90;;;;;;4996811;28;20031;-78
2022/01/13 01:44:44;;;;;;;128.45;19.20;;;4.90;99.90;;;;;;4979983;28;20046;-77
2022/01/13 01:47:13;;;;;;;109.43;18.40;;;4.90;99.90;;;;;;4979800;28;20039;-77
2022/01/13 01:49:42;;;;;;;99.35;18.25;;;4.90;99.90;;;;;;4994745;28;20425;-77
2022/01/13 01:52:10;;;;;;;110.28;17.27;;;4.90;99.90;;;;;;4997235;28;20046;-77
2022/01/13 01:54:35;;;;;;;124.32;21.60;;;4.80;99.90;;;;;;4980392;28;20038;-77
2022/01/13 01:57:02;;;;;;;153.88;19.83;;;4.90;99.90;;;;;;4997059;28;20069;-77
2022/01/13 01:59:31;;;;;;;97.45;16.83;;;4.90;99.90;;;;;;4996886;28;20050;-77
2022/01/13 02:01:58;;;;;;;125.03;18.65;;;4.90;99.90;;;;;;4997560;28;20344;-77
2022/01/13 02:04:26;;;;;;;88.05;15.32;;;4.90;99.90;;;;;;4981040;28;20039;-77
2022/01/13 02:06:54;;;;;;;103.70;15.75;;;4.90;99.90;;;;;;4995887;28;20046;-77
2022/01/13 02:09:20;;;;;;;125.22;18.17;;;4.90;99.90;;;;;;4996177;28;20042;-77
2022/01/13 02:11:51;;;;;;;86.38;14.32;;;4.90;99.90;;;;;;4980214;28;20053;-77
2022/01/13 02:17:11;;;;;;;108.75;18.48;;;4.90;99.90;;;;;;4995411;28;20050;-77
2022/01/13 02:19:39;;;;;;;123.97;18.85;;;4.90;99.90;;;;;;4994784;28;20444;-77
2022/01/13 02:22:05;;;;;;;114.70;16.73;;;4.90;99.90;;;;;;4978804;28;20050;-77
2022/01/13 02:24:31;;;;;;;118.13;17.52;;;4.90;99.90;;;;;;4995554;28;20066;-77
2022/01/13 02:26:57;;;;;;;139.65;18.35;;;4.90;99.90;;;;;;4976073;28;20034;-77
2022/01/13 02:29:22;;;;;;;105.75;16.75;;;4.90;99.90;;;;;;4993586;28;20383;-77
2022/01/13 02:31:48;;;;;;;127.47;18.70;;;4.90;99.90;;;;;;4975693;28;20046;-77
2022/01/13 02:34:14;;;;;;;116.28;17.75;;;4.90;99.90;;;;;;4976701;28;20104;-80
2022/01/13 02:36:42;;;;;;;136.63;19.58;;;4.90;99.90;;;;;;4994903;28;20046;-80
2022/01/13 02:39:08;;;;;;;137.98;18.70;;;4.90;99.90;;;;;;4996504;28;20079;-80
2022/01/13 02:41:33;;;;;;;103.10;15.25;;;4.90;99.90;;;;;;4978701;28;20049;-80
2022/01/13 02:43:59;;;;;;;110.82;17.00;;;4.90;99.90;;;;;;4994402;28;20038;-79
2022/01/13 02:46:54;;;;;;;89.18;15.48;;;4.90;99.90;;;;;;4993309;28;20113;-80
2022/01/13 02:49:20;;;;;;;110.35;18.35;;;4.90;99.90;;;;;;4995199;28;20480;-80
2022/01/13 02:51:48;;;;;;;148.60;21.05;;;4.90;99.90;;;;;;4993018;28;20124;-77
2022/01/13 02:54:14;;;;;;;121.60;19.75;;;4.90;99.90;;;;;;4975642;28;20298;-77
2022/01/13 02:56:42;;;;;;;119.65;19.30;;;4.90;99.90;;;;;;4991194;28;20105;-77
2022/01/13 02:59:08;;;;;;;116.28;18.67;;;4.90;99.90;;;;;;4975168;28;20449;-77
2022/01/13 03:01:34;;;;;;;140.25;20.55;;;4.90;99.90;;;;;;4993129;28;20041;-77
2022/01/13 03:04:05;;;;;;;136.93;19.83;;;4.90;99.90;;;;;;4978643;28;20042;-77
2022/01/13 03:06:36;;;;;;;171.52;23.00;;;4.80;99.90;;;;;;4994359;28;20077;-77
2022/01/13 03:09:10;;;;;;;159.65;19.13;;;4.80;99.90;;;;;;4995098;28;20136;-77
2022/01/13 03:11:38;;;;;;;118.72;17.60;;;4.80;99.90;;;;;;4995161;28;20498;-77
2022/01/13 03:14:06;;;;;;;141.50;18.50;;;4.80;99.90;;;;;;4978187;28;20042;-77
2022/01/13 03:16:31;;;;;;;101.57;17.73;;;4.80;99.90;;;;;;4994531;28;20516;-77
2022/01/13 03:18:57;;;;;;;137.98;20.80;;;4.80;99.90;;;;;;4994105;28;20054;-77
2022/01/13 03:21:23;;;;;;;135.32;19.70;;;4.80;99.90;;;;;;4994393;28;20034;-77
2022/01/13 03:23:50;;;;;;;117.65;19.10;;;4.80;99.90;;;;;;4995852;28;20042;-77
2022/01/13 03:26:16;;;;;;;101.97;17.13;;;4.80;99.90;;;;;;4995342;28;20374;-77
2022/01/13 03:28:51;;;;;;;104.30;16.77;;;4.80;99.90;;;;;;4995554;28;20041;-77
2022/01/13 03:31:23;;;;;;;96.35;15.93;;;4.80;99.90;;;;;;4995392;28;20089;-77
2022/01/13 03:33:50;;;;;;;100.50;16.25;;;4.80;99.90;;;;;;4993991;28;20046;-77
2022/01/13 03:36:16;;;;;;;97.35;16.48;;;4.80;99.90;;;;;;4994198;28;20109;-77
2022/01/13 03:38:41;;;;;;;76.70;14.32;;;4.80;99.90;;;;;;4993839;28;20042;-77
2022/01/13 03:41:07;;;;;;;73.70;13.38;;;4.70;99.90;;;;;;4999078;28;20100;-80
2022/01/13 03:43:35;;;;;;;75.53;13.70;;;4.70;99.90;;;;;;4981960;28;20078;-80
2022/01/13 03:46:01;;;;;;;82.65;14.07;;;4.70;99.90;;;;;;4998626;28;20038;-80
2022/01/13 03:48:26;;;;;;;72.75;12.95;;;4.80;99.90;;;;;;4998899;28;20520;-80
2022/01/13 03:50:51;;;;;;;90.90;15.88;;;4.70;99.90;;;;;;4998284;28;20042;-80
2022/01/13 03:53:26;;;;;;;90.85;15.10;;;4.70;99.90;;;;;;4983596;28;20046;-80
2022/01/13 03:56:42;;;;;;;83.45;14.85;;;4.70;99.90;;;;;;4982613;28;20053;-80
2022/01/13 03:59:31;;;;;;;115.93;16.15;;;4.70;99.90;;;;;;4997757;28;20100;-80
2022/01/13 04:02:00;;;;;;;79.65;12.65;;;4.70;99.90;;;;;;4983260;28;20049;-80
2022/01/13 04:04:31;;;;;;;80.15;13.55;;;4.70;99.90;;;;;;4998568;28;20038;-80
2022/01/13 04:07:32;;;;;;;101.32;15.95;;;4.70;99.90;;;;;;4998672;28;20080;-80
2022/01/13 04:09:58;;;;;;;94.93;13.43;;;4.70;99.90;;;;;;4961582;28;20557;-80
2022/01/13 04:12:26;;;;;;;90.05;15.05;;;4.70;99.90;;;;;;4988975;28;20059;-80
2022/01/13 04:14:56;;;;;;;48.15;8.88;;;4.60;99.90;;;;;;4997885;28;20088;-80
2022/01/13 04:17:24;;;;;;;75.82;13.70;;;4.70;99.90;;;;;;4997566;28;20042;-81
2022/01/13 04:19:50;;;;;;;73.05;13.55;;;4.70;99.90;;;;;;4997123;28;20038;-80
2022/01/13 04:22:17;;;;;;;101.10;14.35;;;4.70;99.90;;;;;;4980431;28;20049;-81
2022/01/13 04:24:47;;;;;;;74.60;14.07;;;4.60;99.90;;;;;;4997759;28;20065;-80
2022/01/13 04:27:22;;;;;;;65.90;12.82;;;4.60;99.90;;;;;;4981484;28;20104;-80
2022/01/13 04:29:59;;;;;;;77.40;12.65;;;4.70;99.90;;;;;;4997133;28;20124;-81
2022/01/13 04:32:25;;;;;;;50.30;11.98;;;4.70;99.90;;;;;;4996813;28;20046;-81
2022/01/13 04:34:50;;;;;;;62.28;12.88;;;4.60;99.90;;;;;;4996372;28;20110;-81
2022/01/13 04:37:16;;;;;;;57.53;12.07;;;4.60;99.90;;;;;;4982165;28;20038;-81
2022/01/13 04:39:41;;;;;;;65.22;13.20;;;4.70;99.90;;;;;;5002837;28;20035;-81
2022/01/13 04:42:09;;;;;;;67.85;14.23;;;4.60;99.90;;;;;;5004238;28;20042;-80
2022/01/13 04:44:35;;;;;;;74.88;12.80;;;4.60;99.90;;;;;;4999783;28;20038;-80
2022/01/13 04:47:00;;;;;;;43.88;10.80;;;4.60;99.90;;;;;;4980209;28;20045;-80
2022/01/13 04:49:26;;;;;;;60.88;12.35;;;4.60;99.90;;;;;;4996388;28;20038;-80
2022/01/13 04:51:51;;;;;;;64.32;12.18;;;4.60;99.90;;;;;;4999973;28;20245;-80
2022/01/13 04:54:17;;;;;;;66.65;13.25;;;4.60;99.90;;;;;;5000562;28;20057;-79
2022/01/13 04:57:03;;;;;;;76.20;13.30;;;4.60;99.90;;;;;;4993949;28;20042;-79
2022/01/13 04:59:29;;;;;;;69.88;12.13;;;4.60;99.90;;;;;;4994075;28;20047;-79
2022/01/13 05:01:54;;;;;;;62.33;14.10;;;4.60;99.90;;;;;;4992429;28;20037;-79
2022/01/13 05:04:21;;;;;;;78.28;14.82;;;4.60;99.90;;;;;;4992326;28;20093;-79
2022/01/13 05:06:47;;;;;;;64.60;13.70;;;4.60;99.90;;;;;;4991889;28;20077;-78
2022/01/13 05:09:12;;;;;;;73.40;13.68;;;4.60;99.90;;;;;;4992280;28;20077;-79
2022/01/13 05:11:38;;;;;;;61.17;13.73;;;4.60;99.90;;;;;;4992245;28;20053;-79
2022/01/13 05:14:04;;;;;;;80.22;13.70;;;4.60;99.90;;;;;;4991889;28;20050;-79
2022/01/13 05:16:37;;;;;;;67.82;12.63;;;4.60;99.90;;;;;;4975435;28;20046;-79
2022/01/13 05:22:06;;;;;;;70.97;13.43;;;4.60;99.90;;;;;;4992050;28;20129;-79
2022/01/13 05:24:30;;;;;;;46.50;11.60;;;4.60;99.90;;;;;;4991497;28;20148;-78
2022/01/13 05:26:55;;;;;;;57.38;11.85;;;4.50;99.90;;;;;;4991787;28;20483;-79
2022/01/13 05:29:21;;;;;;;52.83;11.00;;;4.50;99.90;;;;;;4991616;28;20046;-79
2022/01/13 05:31:48;;;;;;;46.22;10.57;;;4.50;99.90;;;;;;4991560;28;20390;-79
2022/01/13 05:34:14;;;;;;;81.40;13.13;;;4.50;99.90;;;;;;4991538;28;20050;-78
2022/01/13 05:36:40;;;;;;;91.00;13.60;;;4.40;99.90;;;;;;4991287;28;20077;-78
2022/01/13 05:39:05;;;;;;;81.68;13.35;;;4.40;99.90;;;;;;4991630;28;20518;-76
2022/01/13 05:41:33;;;;;;;70.88;12.65;;;4.50;99.90;;;;;;4991645;28;20046;-76
2022/01/13 05:43:59;;;;;;;70.35;13.18;;;4.50;99.90;;;;;;4991771;28;20063;-76
2022/01/13 05:46:25;;;;;;;66.60;10.52;;;4.40;99.90;;;;;;4991424;28;20034;-76
2022/01/13 05:48:50;;;;;;;58.70;11.10;;;4.40;99.90;;;;;;4975502;28;20122;-77
2022/01/13 05:51:16;;;;;;;70.20;13.02;;;4.40;99.90;;;;;;4991582;28;20038;-78
2022/01/13 05:53:42;;;;;;;56.55;11.30;;;4.50;99.90;;;;;;4991628;28;20034;-78
2022/01/13 05:56:09;;;;;;;74.10;11.90;;;4.40;99.90;;;;;;4991215;28;20496;-79
2022/01/13 05:58:34;;;;;;;51.65;12.55;;;4.40;99.90;;;;;;4991259;28;20141;-78
2022/01/13 06:01:00;;;;;;;62.95;12.05;;;4.40;99.90;;;;;;4991338;28;20552;-78
2022/01/13 06:03:25;;;;;;;58.65;13.88;;;4.40;99.90;;;;;;4991603;28;20057;-79
2022/01/13 06:05:51;;;;;;;60.03;12.63;;;4.40;99.90;;;;;;4991183;28;20046;-80
2022/01/13 06:08:17;;;;;;;55.45;11.27;;;4.40;99.90;;;;;;4974971;28;20184;-79
2022/01/13 06:10:45;;;;;;;58.90;13.48;;;4.40;99.90;;;;;;4991872;28;20042;-78
2022/01/13 06:13:11;;;;;;;56.15;11.18;;;4.40;99.90;;;;;;4992835;28;20038;-81
2022/01/13 06:15:37;;;;;;;79.90;13.15;;;4.40;99.90;;;;;;4992312;28;20050;-78
2022/01/13 06:18:04;;;;;;;76.00;14.70;;;4.40;99.90;;;;;;4992624;28;20050;-78
2022/01/13 06:20:30;;;;;;;65.38;12.50;;;4.40;99.90;;;;;;4990996;28;20049;-78
2022/01/13 06:22:57;;;;;;;90.15;14.95;;;4.40;99.90;;;;;;4991350;28;20125;-79
2022/01/13 06:25:23;;;;;;;82.80;14.95;;;4.40;99.90;;;;;;4991216;28;20134;-78
2022/01/13 06:27:49;;;;;;;64.07;13.98;;;4.40;99.90;;;;;;4974817;28;20155;-75
2022/01/13 06:30:15;;;;;;;64.07;12.55;;;4.40;99.90;;;;;;4990865;28;20051;-76
2022/01/13 06:32:42;;;;;;;74.03;19.52;;;4.40;99.90;;;;;;4991068;28;20100;-76
2022/01/13 06:35:08;;;;;;;74.68;14.43;;;4.40;99.90;;;;;;4990572;28;20564;-76
2022/01/13 06:37:34;;;;;;;58.53;12.95;;;4.40;99.90;;;;;;4995854;28;20042;-78
2022/01/13 06:40:02;;;;;;;89.05;15.15;;;4.40;99.90;;;;;;4996128;28;20078;-77
2022/01/13 06:42:27;;;;;;;56.92;12.18;;;4.50;99.90;;;;;;4996353;28;20050;-77
2022/01/13 06:44:53;;;;;;;70.22;12.57;;;4.40;99.90;;;;;;4996296;28;20045;-78
2022/01/13 06:47:18;;;;;;;70.20;13.52;;;4.40;99.90;;;;;;4996704;28;20502;-77
2022/01/13 06:49:44;;;;;;;67.18;13.35;;;4.40;99.90;;;;;;4995101;28;20417;-77
2022/01/13 06:52:10;;;;;;;54.50;10.40;;;4.40;99.90;;;;;;4995134;28;20050;-78
2022/01/13 06:54:36;;;;;;;94.95;14.75;;;4.40;99.90;;;;;;4995197;28;20084;-77
2022/01/13 06:57:02;;;;;;;93.90;16.15;;;4.40;99.90;;;;;;4979040;28;20073;-76
2022/01/13 06:59:28;;;;;;;75.97;16.27;;;4.40;99.90;;;;;;4995456;28;20108;-77
2022/01/13 07:01:55;;;;;;;80.88;13.73;;;4.40;99.90;;;;;;4995326;28;20129;-77
2022/01/13 07:04:21;;;;;;;81.78;14.15;;;4.40;99.90;;;;;;4995315;28;20042;-78
2022/01/13 07:06:47;;;;;;;71.93;14.38;;;4.40;99.90;;;;;;4978658;28;20038;-77
2022/01/13 07:09:15;;;;;;;100.30;16.52;;;4.40;99.90;;;;;;4995139;28;20050;-77
2022/01/13 07:11:41;;;;;;;72.65;15.07;;;4.40;99.90;;;;;;4995501;28;20379;-77
2022/01/13 07:14:07;;;;;;;70.00;13.65;;;4.40;99.90;;;;;;4994547;28;20138;-77
2022/01/13 07:16:33;;;;;;;60.97;14.00;;;4.40;99.90;;;;;;4994281;28;20509;-77
2022/01/13 07:18:59;;;;;;;90.95;15.00;;;4.40;99.90;;;;;;4994757;28;20457;-77
2022/01/13 07:21:27;;;;;;;82.80;15.98;;;4.50;99.90;;;;;;4994697;28;20046;-78
2022/01/13 07:23:53;;;;;;;66.30;12.80;;;4.40;99.90;;;;;;4995499;28;20402;-77
2022/01/13 07:26:19;;;;;;;74.15;15.07;;;4.40;99.90;;;;;;4978417;28;20552;-77
2022/01/13 07:28:45;;;;;;;80.85;14.73;;;4.50;99.90;;;;;;4996104;28;20042;-77
2022/01/13 07:31:14;;;;;;;80.10;15.77;;;4.50;99.90;;;;;;4994706;28;20345;-77
2022/01/13 07:33:40;;;;;;;96.47;15.93;;;4.40;99.90;;;;;;4994860;28;20050;-77
2022/01/13 07:36:05;;;;;;;82.90;16.35;;;4.40;99.90;;;;;;4994231;28;20413;-77
2022/01/13 07:38:31;;;;;;;86.45;15.27;;;4.40;99.90;;;;;;4995472;28;20038;-77
2022/01/13 07:40:56;;;;;;;98.97;16.58;;;4.50;99.90;;;;;;4994397;28;20042;-77
2022/01/13 07:43:24;;;;;;;97.28;16.08;;;4.40;99.90;;;;;;4994127;28;20097;-77
2022/01/13 07:45:51;;;;;;;73.35;14.68;;;4.50;99.90;;;;;;4978235;28;20045;-77
2022/01/13 07:48:17;;;;;;;59.95;13.43;;;4.40;99.90;;;;;;4994235;28;20050;-77
2022/01/13 07:50:43;;;;;;;82.85;15.55;;;4.50;99.90;;;;;;4977799;28;20057;-77
2022/01/13 07:53:08;;;;;;;96.80;16.15;;;4.50;99.90;;;;;;4995438;28;20054;-77
2022/01/13 07:55:34;;;;;;;73.28;14.85;;;4.50;99.90;;;;;;4993657;28;20042;-77
2022/01/13 07:58:00;;;;;;;73.93;14.18;;;4.50;99.90;;;;;;4993993;28;20413;-78
2022/01/13 08:00:25;;;;;;;63.25;13.65;;;4.50;99.90;;;;;;4994009;28;20129;-77
2022/01/13 08:02:51;;;;;;;66.72;15.05;;;4.50;99.90;;;;;;4994982;28;20113;-77
2022/01/13 08:05:16;;;;;;;70.07;13.60;;;4.50;99.90;;;;;;4994569;28;20042;-77
2022/01/13 08:07:42;;;;;;;67.20;13.77;;;4.50;99.90;;;;;;4994406;28;20493;-77
2022/01/13 08:10:08;;;;;;;83.72;14.73;;;4.50;99.90;;;;;;4993942;28;20158;-77
2022/01/13 08:12:34;;;;;;;70.78;14.82;;;4.50;99.90;;;;;;4995430;28;20093;-77
2022/01/13 08:14:59;;;;;;;65.13;13.68;;;4.50;99.90;;;;;;4994339;28;20050;-77
2022/01/13 08:20:09;;;;;;;63.72;14.13;;;4.50;99.90;;;;;;4994200;28;20047;-78
2022/01/13 08:22:36;;;;;;;58.35;12.80;;;4.50;99.90;;;;;;4993802;28;20048;-77
2022/01/13 08:25:02;;;;;;;51.17;12.82;;;4.50;99.90;;;;;;4995342;28;20042;-77
2022/01/13 08:27:28;;;;;;;51.15;11.15;;;4.60;99.90;;;;;;4994951;28;20450;-77
2022/01/13 08:29:53;;;;;;;62.22;12.65;;;4.60;99.90;;;;;;4994850;28;20134;-77
2022/01/13 08:32:19;;;;;;;54.83;12.43;;;4.60;99.90;;;;;;4994844;28;20409;-77
2022/01/13 08:34:45;;;;;;;55.63;12.32;;;4.60;99.90;;;;;;4994280;28;20038;-77
2022/01/13 08:37:11;;;;;;;61.33;13.07;;;4.60;99.90;;;;;;4994364;28;20073;-78
2022/01/13 08:39:43;;;;;;;53.20;11.38;;;4.60;99.90;;;;;;4994024;28;20054;-77
2022/01/13 08:42:09;;;;;;;61.63;13.73;;;4.60;99.90;;;;;;4993824;28;20050;-78
2022/01/13 08:44:35;;;;;;;52.45;11.48;;;4.60;99.90;;;;;;4993934;28;20042;-77
2022/01/13 08:47:00;;;;;;;58.00;14.02;;;4.70;99.90;;;;;;4994049;28;20113;-77
2022/01/13 08:49:26;;;;;;;51.17;11.45;;;4.60;99.90;;;;;;4996050;28;20042;-78
2022/01/13 08:51:51;;;;;;;62.60;11.50;;;4.70;99.90;;;;;;4996106;28;20054;-77
2022/01/13 08:54:21;;;;;;;48.78;11.82;;;4.70;99.90;;;;;;4994893;28;20044;-78
2022/01/13 08:56:46;;;;;;;61.97;12.95;;;4.70;99.90;;;;;;4994231;28;20501;-78
2022/01/13 08:59:12;;;;;;;51.22;12.43;;;4.70;99.90;;;;;;4993943;28;20118;-78
2022/01/13 09:01:38;;;;;;;55.72;11.60;;;4.70;99.90;;;;;;4994631;28;20052;-78
2022/01/13 09:04:03;;;;;;;51.38;12.45;;;4.80;99.90;;;;;;4994703;28;20045;-78
2022/01/13 09:06:29;;;;;;;51.17;11.25;;;4.80;99.90;;;;;;4994362;28;20038;-77
2022/01/13 09:08:54;;;;;;;51.20;11.40;;;4.70;99.90;;;;;;4994810;28;20042;-78
2022/01/13 09:11:20;;;;;;;56.80;13.27;;;4.80;99.90;;;;;;4994144;28;20050;-78
2022/01/13 09:13:46;;;;;;;56.97;11.82;;;4.80;99.90;;;;;;4994695;28;20390;-78
2022/01/13 09:16:16;;;;;;;44.08;11.20;;;4.80;99.90;;;;;;4994395;28;20497;-77
2022/01/13 09:21:27;;;;;;;53.17;11.50;;;4.80;99.90;;;;;;4994621;28;20493;-77
2022/01/13 09:23:53;;;;;;;80.55;14.27;;;4.80;99.90;;;;;;4994406;28;20054;-78
2022/01/13 09:26:18;;;;;;;54.65;11.68;;;4.90;99.90;;;;;;4994141;28;20050;-81
2022/01/13 09:28:44;;;;;;;59.38;13.38;;;4.90;99.90;;;;;;4993141;28;20042;-81
2022/01/13 09:31:10;;;;;;;54.10;12.50;;;4.90;99.90;;;;;;4993197;28;20038;-81
2022/01/13 09:33:36;;;;;;;57.33;13.57;;;4.90;99.90;;;;;;4992591;28;20041;-82
2022/01/13 09:36:03;;;;;;;57.78;12.95;;;5.00;99.90;;;;;;4992529;28;20474;-81
2022/01/13 09:38:29;;;;;;;68.35;13.73;;;5.00;99.90;;;;;;4993282;28;20065;-81
2022/01/13 09:40:55;;;;;;;52.42;12.38;;;5.00;99.90;;;;;;4992453;28;20497;-81
2022/01/13 09:43:22;;;;;;;60.15;13.95;;;5.00;99.90;;;;;;4992493;28;20034;-81
2022/01/13 09:45:48;;;;;;;59.85;13.18;;;5.00;99.90;;;;;;4992888;28;20046;-81
2022/01/13 09:48:14;;;;;;;45.35;12.20;;;5.10;99.90;;;;;;4993050;28;20145;-81
2022/01/13 09:50:40;;;;;;;65.75;14.45;;;5.00;99.90;;;;;;4992368;28;20133;-81
2022/01/13 09:53:07;;;;;;;64.70;13.75;;;5.00;99.90;;;;;;4992578;28;20038;-81
2022/01/13 09:55:33;;;;;;;71.13;14.55;;;5.10;99.90;;;;;;4992173;28;20050;-82
2022/01/13 09:58:03;;;;;;;72.63;15.23;;;5.20;99.90;;;;;;4992047;28;20042;-82
2022/01/13 10:00:29;;;;;;;61.13;13.18;;;5.20;99.90;;;;;;4992634;28;20125;-82
2022/01/13 10:02:55;;;;;;;69.90;14.00;;;5.20;99.90;;;;;;4992190;28;20046;-82
2022/01/13 10:05:22;;;;;;;64.50;14.95;;;5.20;99.90;;;;;;4992002;28;20111;-82
2022/01/13 10:07:51;;;;;;;73.18;15.98;;;5.20;99.90;;;;;;4991913;28;20045;-82
2022/01/13 10:10:19;;;;;;;94.90;16.92;;;5.20;99.90;;;;;;4992327;28;20445;-81
2022/01/13 10:12:48;;;;;;;73.40;16.63;;;5.20;99.90;;;;;;4980762;28;20469;-82
2022/01/13 10:18:04;;;;;;;107.50;18.23;;;5.30;99.90;;;;;;4996444;28;20057;-82
2022/01/13 10:20:30;;;;;;;61.78;12.85;;;5.30;99.90;;;;;;4996111;28;20526;-82
2022/01/13 10:23:10;;;;;;;72.47;13.48;;;5.30;99.90;;;;;;4996083;28;20070;-81
2022/01/13 10:25:37;;;;;;;60.83;13.85;;;5.30;99.90;;;;;;4995654;28;20493;-82
2022/01/13 10:28:21;;;;;;;55.13;12.68;;;5.30;99.90;;;;;;4995873;28;20038;-81
2022/01/13 10:30:52;;;;;;;102.47;18.83;;;5.30;99.90;;;;;;4996632;28;20125;-82
2022/01/13 10:33:26;;;;;;;88.63;16.33;;;5.30;99.90;;;;;;4980230;28;20564;-81
2022/01/13 10:36:04;;;;;;;54.53;13.15;;;5.30;99.90;;;;;;4995914;28;20126;-81
2022/01/13 10:38:48;;;;;;;64.32;12.70;;;5.40;99.90;;;;;;4996343;28;20050;-81
2022/01/13 10:41:31;;;;;;;69.32;15.23;;;5.40;99.90;;;;;;4995568;28;20102;-81
2022/01/13 10:44:18;;;;;;;53.33;12.35;;;5.40;99.90;;;;;;4979842;28;20122;-82
2022/01/13 10:47:00;;;;;;;74.75;14.10;;;5.40;99.90;;;;;;4995583;28;20039;-82
2022/01/13 10:49:38;;;;;;;48.97;11.60;;;5.50;99.90;;;;;;4995934;28;20038;-81
2022/01/13 10:52:25;;;;;;;50.78;11.05;;;5.40;99.90;;;;;;4996594;28;20046;-81
2022/01/13 10:55:04;;;;;;;42.85;11.10;;;5.50;99.90;;;;;;5000606;28;20038;-83
2022/01/13 10:57:30;;;;;;;44.72;12.45;;;5.50;99.90;;;;;;4996344;28;20042;-83
2022/01/13 10:59:57;;;;;;;88.55;17.30;;;5.50;99.90;;;;;;4995574;28;20046;-83
2022/01/13 11:02:24;;;;;;;56.00;12.90;;;5.50;99.90;;;;;;4995419;28;20121;-83
2022/01/13 11:04:52;;;;;;;48.38;13.00;;;5.50;99.90;;;;;;4995451;28;20037;-83
2022/01/13 11:07:23;;;;;;;48.53;12.27;;;5.60;99.90;;;;;;4979402;28;20469;-83
2022/01/13 11:10:01;;;;;;;65.65;13.07;;;5.50;99.90;;;;;;4995310;28;20077;-83
2022/01/13 11:12:38;;;;;;;60.20;14.25;;;5.50;99.90;;;;;;4995768;28;20101;-83
2022/01/13 11:15:06;;;;;;;70.38;13.57;;;5.60;99.90;;;;;;4995192;28;20046;-83
2022/01/13 11:17:36;;;;;;;58.80;13.43;;;5.60;99.90;;;;;;4995332;28;20100;-83
2022/01/13 11:20:03;;;;;;;50.45;12.35;;;5.50;99.90;;;;;;4978407;28;20038;-83
2022/01/13 11:22:34;;;;;;;109.18;18.17;;;5.60;99.90;;;;;;4994830;28;20552;-84
2022/01/13 11:24:59;;;;;;;68.25;14.77;;;5.60;99.90;;;;;;4994798;28;20391;-83
2022/01/13 11:27:25;;;;;;;43.42;12.32;;;5.60;99.90;;;;;;4978731;28;20038;-83
2022/01/13 11:29:51;;;;;;;42.08;11.23;;;5.60;99.90;;;;;;4994910;28;20045;-83
2022/01/13 11:32:17;;;;;;;46.75;11.70;;;5.60;99.90;;;;;;4978880;28;20163;-83
2022/01/13 11:34:45;;;;;;;44.47;11.93;;;5.60;99.90;;;;;;4994835;28;20123;-83
2022/01/13 11:37:11;;;;;;;46.38;11.63;;;5.60;99.90;;;;;;4995176;28;20401;-83
2022/01/13 11:39:39;;;;;;;47.50;11.15;;;5.60;99.90;;;;;;4994246;28;20046;-83
2022/01/13 11:42:11;;;;;;;44.30;11.75;;;5.60;99.90;;;;;;4994674;28;20105;-83
2022/01/13 11:44:38;;;;;;;50.50;11.73;;;5.60;99.90;;;;;;4994792;28;20433;-83
2022/01/13 11:47:22;;;;;;;50.13;12.20;;;5.60;99.90;;;;;;4994519;28;20042;-83
2022/01/13 11:49:58;;;;;;;39.67;12.30;;;5.60;99.90;;;;;;4994726;28;20060;-83
2022/01/13 11:52:43;;;;;;;46.85;11.68;;;5.60;99.90;;;;;;4993586;28;20048;-79
2022/01/13 11:55:34;;;;;;;55.63;14.73;;;5.60;99.90;;;;;;4993607;28;20089;-78
2022/01/13 11:58:18;;;;;;;51.22;12.48;;;5.60;99.90;;;;;;4993562;28;20120;-78
2022/01/13 12:00:50;;;;;;;53.17;13.90;;;5.70;99.90;;;;;;4993471;28;20124;-78
2022/01/13 12:03:29;;;;;;;46.22;13.68;;;5.60;99.90;;;;;;4993550;28;20035;-78
2022/01/13 12:05:56;;;;;;;47.72;12.00;;;5.60;99.90;;;;;;4993090;28;20043;-75
2022/01/13 12:08:46;;;;;;;52.05;12.32;;;5.60;99.90;;;;;;4993023;28;20053;-77
2022/01/13 12:11:50;;;;;;;37.25;10.60;;;5.60;99.90;;;;;;4993300;28;20074;-75
2022/01/13 12:14:25;;;;;;;49.05;14.02;;;5.50;99.90;;;;;;4993224;28;20142;-78
2022/01/13 12:16:58;;;;;;;47.42;12.93;;;5.60;99.90;;;;;;4992861;28;20055;-75
2022/01/13 12:19:47;;;;;;;50.55;13.57;;;5.60;99.90;;;;;;4992969;28;20061;-78
2022/01/13 12:23:16;;;;;;;51.85;13.57;;;5.60;99.90;;;;;;4994288;28;20045;-80
2022/01/13 12:25:31;;;;;;;46.83;12.40;;;5.60;99.90;;;;;;4984884;28;20054;-79
2022/01/13 12:27:57;;;;;;;40.60;13.15;;;5.60;99.90;;;;;;4992918;28;20122;-79
2022/01/13 12:30:27;;;;;;;123.53;22.02;;;5.60;99.90;;;;;;4992781;28;20197;-78
2022/01/13 12:32:58;;;;;;;51.80;12.20;;;5.60;99.90;;;;;;4992583;28;20057;-80
2022/01/13 12:35:41;;;;;;;47.45;12.85;;;5.60;99.90;;;;;;4992204;28;20038;-77
2022/01/13 12:38:15;;;;;;;44.72;13.35;;;5.60;99.90;;;;;;4993939;28;20035;-77
2022/01/13 12:40:48;;;;;;;45.05;13.85;;;5.70;99.90;;;;;;4992728;28;20050;-77
2022/01/13 12:46:12;;;;;;;57.35;14.45;;;5.70;99.90;;;;;;4992355;28;20050;-77
2022/01/13 12:48:40;;;;;;;31.08;11.93;;;5.70;99.90;;;;;;4992463;28;20046;-77
2022/01/13 12:51:06;;;;;;;47.45;13.82;;;5.70;99.90;;;;;;4992405;28;20057;-77
2022/01/13 12:53:34;;;;;;;50.45;14.02;;;5.70;99.90;;;;;;4992628;28;20038;-77
2022/01/13 12:56:15;;;;;;;42.40;11.95;;;5.70;99.90;;;;;;4992147;28;20042;-77
2022/01/13 12:58:53;;;;;;;42.20;12.88;;;5.70;99.90;;;;;;4992132;28;20109;-76
2022/01/13 13:01:23;;;;;;;48.20;14.68;;;5.70;99.90;;;;;;4992172;28;20100;-77
2022/01/13 13:03:59;;;;;;;42.53;13.20;;;5.70;99.90;;;;;;4992451;28;20046;-81
2022/01/13 13:06:26;;;;;;;44.13;12.57;;;5.80;99.90;;;;;;4992139;28;20038;-80
2022/01/13 13:08:52;;;;;;;48.25;12.15;;;5.80;99.90;;;;;;4976004;28;20058;-80
2022/01/13 13:11:17;;;;;;;52.67;15.73;;;5.80;99.90;;;;;;4992651;28;20481;-80
2022/01/13 13:13:49;;;;;;;42.08;12.70;;;5.80;99.90;;;;;;4992439;28;20116;-80